الصفحة الرئيسية
METAR-TAF:

METAR-TAF

مطار :

مطار كوناكري الدولي

كوناكري, غينيا

دائرة عرض: 09-34N, خط طول: 013-37W, ارتفاع: 26 متر

مراقبة الطقس الحالي

تاريخ ووقت الإصدار 59 دقيقة قبل الساعة 22:00UTC
ريح 6 عقدة من الشرق
درجة الحرارة 26°درجة مئوية
الرطوبة 94%
ضغط 1012 hPa
الرؤية 10 كم أو أكثر
غيوم مفككة على ارتفاع 1500 قدم
غيوم مفككة على ارتفاع 11000 قدم

METAR: GUCY 242200Z 08006KT 9999 BKN015 BKN110 26/25 Q1012 RETS NOSIG

زمن: 22:59 (22:59 UTC)

توقعات

تاريخ ووقت الإصدار 29ساعات و 59 دقيقة قبل الساعة 17:00UTC
التوقعات صالحة من23 الساعة 18 UTC إلى 24 الساعة 24 UTC
ريح 6 عقدة من الغرب/الجنوب الغربي
الرؤية 10 كم أو أكثر
غيوم متفرقة على ارتفاع 1500 قدم
غيوم متفرقة على ارتفاع 11000 قدم
مؤقت
من 23 الساعة 18 UTC إلى 24 الساعة 00 UTC
ريح 10 عقدة من الجنوب
الرؤية: 4000 متر
غيوم مفككة على ارتفاع 1300 قدم
غيوم مفككة على ارتفاع 10000 قدم
عاصفة رعدية, مطر خفيف
أصبح
من 24 الساعة 05 UTC إلى 24 الساعة 08 UTC
ريح 2 عقدةمن اتجاهات متغيرة

TAF: GUCY 231700Z 2318/2424 24006KT 9999 SCT015 SCT110 TEMPO 2318/2400 18010KT 4000 -TSRA BKN013 FEW23CB BKN100 BECMG 2405/2408 VRB02KT

أرصاد الطقس والتوقعات من أكثر من 4000 مطار (تقارير الطقس للمطار METAR والتنبؤ بالطقس بالمطارTAF).

المحطات المتاحة هي النقط الصفراء والحمراء على الخريطة.

حرك المؤشر فوق النقطة لمعرفة اسم المحطة.

ثم انقر لمعرفة أرصاد وتوقعات الطقس.

لتغيير الخارطة: اضغط على الأزرار الخضراء مع رمز الصليب الأسود للتكبير. على الزر الأخضر مع شرطة للتصغير، أو على الأسهم الخضراء للخرائط المجاورة.


METAR-TAF: